Historyczne dane pomiarowe

Dodano dane terminowe – wersja testowa.

Dane z okresu 1951-2019

Wersja bazy: 1.34 [2019-03-16, lista zmian], aktualizacja planowana na 2019-04-15

Dane meteo z obszaru Polski uzyskane na podstawie danych udostępnionych przez Instytut Meteorologii i Gospodarki Wodnej – Państwowy Instytut Badawczy.

 

Wybierz Datę:    

       

TemperaturaWilgotnośćWiatrCiśnienieOpadyŚniegCzas trwania zjawisk
 Stacja t tx tn tng RH VA  wxwx mslp ppp RRR   cm mm wxwxwxwxwxwxwx
1990-12-13 0.9 1.5 0.5 -2.5 89.8- 8.0 3.3---- 0.3------------
1990-12-14 -0.2 0.6 -0.9 -3.4 94.0- 8.0 4.0---- 3.8------------
1990-12-15 -0.7 -0.1 -1.6 -3.4 92.8- 8.0 4.0---- 0.3-- 3---------
1990-12-16 -0.7 0.1 -1.6 -3.5 93.8- 8.0 4.7---- 0.3-- 3---------
1990-12-17 -1.8 -1.1 -2.8 -5.3 89.8- 8.0 2.7---- 0.0-- 3---------
1990-12-18 -1.8 -1.0 -2.7 -4.6 90.3- 8.0 3.0---- 1.0-- 3---------
1990-12-19 -1.7 0.4 -2.9 -5.1 89.5- 7.7 2.7---- 0.0-- 5---------
1990-12-20 -0.8 -0.4 -1.7 -7.3 76.5- 7.7 6.3---- 0.0-- 5---------
1990-12-21 0.5 2.0 -0.8 -4.6 79.0- 8.0 5.0---- 0.0-- 4---------
1990-12-22 1.3 2.3 -0.2 -4.1 80.5- 7.3 1.3---- 0.0-- 3---------
1990-12-23 1.5 3.9 -2.1 -3.9 86.8- 5.7 2.7---- 0.0-- 2---------
1990-12-24 -1.9 0.0 -4.2 -6.6 66.5- 1.0 7.7---- 0.0------------
1990-12-25 -1.7 0.2 -3.5 -7.3 60.8- 1.0 10.0---- 0.0------------
1990-12-26 -0.4 0.2 -2.0 -4.9 75.3- 6.0 12.0---- 0.1------------
1990-12-27 3.1 5.0 -0.6 -3.8 81.3- 7.3 4.7---- 0.0------------
1990-12-28 2.3 3.5 1.2 -3.6 72.5- 2.0 5.0---- 0.2------------
1990-12-29 2.5 3.7 0.8 -3.8 70.3- 7.3 10.7---- 1.7------------
1990-12-30 6.8 8.6 2.9 -0.3 79.0- 7.7 4.0---- 0.0------------
1990-12-31 4.8 6.7 2.9 0.2 79.0- 4.7 4.7---- 1.8------------
1991-01-01 3.9 5.6 2.0 -1.8 86.0- 7.0 6.0---- 0.0------------
1991-01-02 2.4 3.5 0.1 -5.3 79.3- 5.7 6.0---- 2.0------------
1991-01-03 7.5 10.4 3.4 1.5 86.3- 8.0 5.0---- 1.3------------
1991-01-04 9.5 12.3 5.7 3.1 77.0- 4.3 4.3---- 0.0------------
1991-01-05 4.7 8.8 3.3 0.7 72.3- 5.3 5.7---- 0.0------------
1991-01-06 4.3 5.8 1.2 -0.8 67.0- 4.7 10.0---- 0.0------------
1991-01-07 4.5 6.3 2.4 -1.1 69.0- 5.3 6.3---- 0.0------------
1991-01-08 4.7 7.9 2.7 -1.2 80.0- 2.3 3.3---- 0.0------------
1991-01-09 6.6 9.4 3.7 -0.5 64.0- 4.7 6.0---- 0.0------------
1991-01-10 9.2 13.3 5.2 2.1 62.5- 7.0 10.0---- 0.0------------
1991-01-11 8.7 15.0 7.6 4.9 80.3- 7.3 3.0---- 0.0------------
241.3 ms

 

Źródłem pochodzenia danych jest Instytut Meteorologii i Gospodarki Wodnej – Państwowy Instytut Badawczy. Dane Instytutu Meteorologii i Gospodarki Wodnej – Państwowego Instytutu Badawczego zostały przetworzone.

Dane źródłowe można odnaleźć na stronie https://dane.imgw.pl